sensor_id;sensor_type;location;lat;lon;timestamp;P1;durP1;ratioP1;P2;durP2;ratioP2
76107;SDS011;64834;52.516;10.528;2023-03-11T00:01:02;6.90;;;3.90;;
76107;SDS011;64834;52.516;10.528;2023-03-11T00:03:27;6.55;;;3.25;;
76107;SDS011;64834;52.516;10.528;2023-03-11T00:05:53;8.75;;;5.75;;
76107;SDS011;64834;52.516;10.528;2023-03-11T00:08:21;5.25;;;3.20;;
76107;SDS011;64834;52.516;10.528;2023-03-11T00:10:50;12.20;;;6.30;;
76107;SDS011;64834;52.516;10.528;2023-03-11T00:13:17;5.07;;;2.97;;
76107;SDS011;64834;52.516;10.528;2023-03-11T00:15:45;5.72;;;3.15;;
76107;SDS011;64834;52.516;10.528;2023-03-11T00:18:12;6.95;;;3.33;;
76107;SDS011;64834;52.516;10.528;2023-03-11T00:20:39;8.65;;;4.47;;
76107;SDS011;64834;52.516;10.528;2023-03-11T00:23:06;6.22;;;3.60;;
76107;SDS011;64834;52.516;10.528;2023-03-11T00:25:33;8.57;;;4.05;;
76107;SDS011;64834;52.516;10.528;2023-03-11T00:28:00;8.43;;;4.80;;
76107;SDS011;64834;52.516;10.528;2023-03-11T00:30:26;6.68;;;3.63;;
76107;SDS011;64834;52.516;10.528;2023-03-11T00:32:53;7.00;;;4.50;;
76107;SDS011;64834;52.516;10.528;2023-03-11T00:35:22;6.22;;;3.25;;
76107;SDS011;64834;52.516;10.528;2023-03-11T00:37:52;9.73;;;5.35;;
76107;SDS011;64834;52.516;10.528;2023-03-11T00:40:20;5.40;;;2.88;;
76107;SDS011;64834;52.516;10.528;2023-03-11T00:42:46;9.02;;;4.28;;
76107;SDS011;64834;52.516;10.528;2023-03-11T00:45:12;9.48;;;5.40;;
76107;SDS011;64834;52.516;10.528;2023-03-11T00:47:39;4.82;;;2.67;;
76107;SDS011;64834;52.516;10.528;2023-03-11T00:50:05;9.10;;;4.47;;
76107;SDS011;64834;52.516;10.528;2023-03-11T00:52:30;11.13;;;5.13;;
76107;SDS011;64834;52.516;10.528;2023-03-11T00:54:57;8.10;;;4.63;;
76107;SDS011;64834;52.516;10.528;2023-03-11T00:57:23;7.30;;;4.00;;
76107;SDS011;64834;52.516;10.528;2023-03-11T00:59:48;9.32;;;5.47;;
76107;SDS011;64834;52.516;10.528;2023-03-11T01:02:14;5.93;;;4.10;;
76107;SDS011;64834;52.516;10.528;2023-03-11T01:04:39;9.48;;;4.80;;
76107;SDS011;64834;52.516;10.528;2023-03-11T01:07:04;9.27;;;4.80;;
76107;SDS011;64834;52.516;10.528;2023-03-11T01:09:30;11.65;;;5.53;;
76107;SDS011;64834;52.516;10.528;2023-03-11T01:11:55;6.57;;;4.10;;
76107;SDS011;64834;52.516;10.528;2023-03-11T01:14:21;7.93;;;4.10;;
76107;SDS011;64834;52.516;10.528;2023-03-11T01:16:46;9.20;;;4.75;;
76107;SDS011;64834;52.516;10.528;2023-03-11T01:19:12;8.45;;;4.13;;
76107;SDS011;64834;52.516;10.528;2023-03-11T01:21:37;9.55;;;4.78;;
76107;SDS011;64834;52.516;10.528;2023-03-11T01:24:04;6.45;;;4.60;;
76107;SDS011;64834;52.516;10.528;2023-03-11T01:26:29;9.10;;;5.28;;
76107;SDS011;64834;52.516;10.528;2023-03-11T01:28:55;7.22;;;3.58;;
76107;SDS011;64834;52.516;10.528;2023-03-11T01:31:20;12.10;;;5.57;;
76107;SDS011;64834;52.516;10.528;2023-03-11T01:33:45;8.38;;;4.35;;
76107;SDS011;64834;52.516;10.528;2023-03-11T01:36:11;7.97;;;4.90;;
76107;SDS011;64834;52.516;10.528;2023-03-11T01:38:36;9.13;;;4.85;;
76107;SDS011;64834;52.516;10.528;2023-03-11T01:41:02;12.48;;;7.20;;
76107;SDS011;64834;52.516;10.528;2023-03-11T01:43:39;5.60;;;3.30;;
76107;SDS011;64834;52.516;10.528;2023-03-11T01:46:14;10.60;;;5.75;;
76107;SDS011;64834;52.516;10.528;2023-03-11T01:51:19;13.13;;;7.05;;
76107;SDS011;64834;52.516;10.528;2023-03-11T01:54:17;8.73;;;5.50;;
76107;SDS011;64834;52.516;10.528;2023-03-11T01:56:44;14.75;;;7.28;;
76107;SDS011;64834;52.516;10.528;2023-03-11T01:59:11;9.50;;;4.97;;
76107;SDS011;64834;52.516;10.528;2023-03-11T02:01:42;11.25;;;5.25;;
76107;SDS011;64834;52.516;10.528;2023-03-11T02:04:17;11.35;;;5.53;;
76107;SDS011;64834;52.516;10.528;2023-03-11T02:06:43;6.95;;;4.00;;
76107;SDS011;64834;52.516;10.528;2023-03-11T02:09:09;12.57;;;7.30;;
76107;SDS011;64834;52.516;10.528;2023-03-11T02:11:34;6.43;;;3.97;;
76107;SDS011;64834;52.516;10.528;2023-03-11T02:14:01;8.63;;;4.95;;
76107;SDS011;64834;52.516;10.528;2023-03-11T02:16:28;11.45;;;6.22;;
76107;SDS011;64834;52.516;10.528;2023-03-11T02:18:53;11.02;;;6.03;;
76107;SDS011;64834;52.516;10.528;2023-03-11T02:21:26;16.60;;;5.50;;
76107;SDS011;64834;52.516;10.528;2023-03-11T02:26:53;7.20;;;4.57;;
76107;SDS011;64834;52.516;10.528;2023-03-11T02:29:20;9.15;;;5.72;;
76107;SDS011;64834;52.516;10.528;2023-03-11T02:31:46;8.45;;;4.72;;
76107;SDS011;64834;52.516;10.528;2023-03-11T02:34:15;11.15;;;6.13;;
76107;SDS011;64834;52.516;10.528;2023-03-11T02:36:47;15.07;;;5.90;;
76107;SDS011;64834;52.516;10.528;2023-03-11T02:39:12;10.73;;;6.20;;
76107;SDS011;64834;52.516;10.528;2023-03-11T02:41:39;7.20;;;4.32;;
76107;SDS011;64834;52.516;10.528;2023-03-11T02:44:08;12.60;;;5.70;;
76107;SDS011;64834;52.516;10.528;2023-03-11T02:46:36;12.95;;;5.93;;
76107;SDS011;64834;52.516;10.528;2023-03-11T02:49:05;9.10;;;5.35;;
76107;SDS011;64834;52.516;10.528;2023-03-11T02:51:30;12.75;;;6.03;;
76107;SDS011;64834;52.516;10.528;2023-03-11T02:53:57;9.60;;;6.18;;
76107;SDS011;64834;52.516;10.528;2023-03-11T02:56:25;14.00;;;6.53;;
76107;SDS011;64834;52.516;10.528;2023-03-11T02:58:51;7.05;;;4.22;;
76107;SDS011;64834;52.516;10.528;2023-03-11T03:01:16;16.25;;;7.57;;
76107;SDS011;64834;52.516;10.528;2023-03-11T03:03:41;10.27;;;4.85;;
76107;SDS011;64834;52.516;10.528;2023-03-11T03:06:07;7.35;;;4.15;;
76107;SDS011;64834;52.516;10.528;2023-03-11T03:08:32;14.82;;;7.43;;
76107;SDS011;64834;52.516;10.528;2023-03-11T03:10:58;12.95;;;6.68;;
76107;SDS011;64834;52.516;10.528;2023-03-11T03:13:24;9.98;;;5.53;;
76107;SDS011;64834;52.516;10.528;2023-03-11T03:15:50;13.65;;;6.57;;
76107;SDS011;64834;52.516;10.528;2023-03-11T03:18:16;14.40;;;7.35;;
76107;SDS011;64834;52.516;10.528;2023-03-11T03:20:41;15.45;;;7.70;;
76107;SDS011;64834;52.516;10.528;2023-03-11T03:23:06;14.45;;;6.60;;
76107;SDS011;64834;52.516;10.528;2023-03-11T03:25:32;13.57;;;6.60;;
76107;SDS011;64834;52.516;10.528;2023-03-11T03:27:57;13.90;;;7.70;;
76107;SDS011;64834;52.516;10.528;2023-03-11T03:30:22;12.43;;;6.05;;
76107;SDS011;64834;52.516;10.528;2023-03-11T03:32:48;16.42;;;7.53;;
76107;SDS011;64834;52.516;10.528;2023-03-11T03:35:13;17.38;;;8.27;;
76107;SDS011;64834;52.516;10.528;2023-03-11T03:37:38;16.90;;;8.07;;
76107;SDS011;64834;52.516;10.528;2023-03-11T03:40:04;14.45;;;7.40;;
76107;SDS011;64834;52.516;10.528;2023-03-11T03:42:34;14.25;;;7.53;;
76107;SDS011;64834;52.516;10.528;2023-03-11T03:45:00;18.58;;;7.60;;
76107;SDS011;64834;52.516;10.528;2023-03-11T03:47:26;10.95;;;5.75;;
76107;SDS011;64834;52.516;10.528;2023-03-11T03:49:51;18.17;;;7.18;;
76107;SDS011;64834;52.516;10.528;2023-03-11T03:52:17;15.07;;;7.63;;
76107;SDS011;64834;52.516;10.528;2023-03-11T03:54:42;16.63;;;7.57;;
76107;SDS011;64834;52.516;10.528;2023-03-11T03:57:07;15.77;;;6.72;;
76107;SDS011;64834;52.516;10.528;2023-03-11T03:59:33;14.60;;;6.63;;
76107;SDS011;64834;52.516;10.528;2023-03-11T04:01:58;15.05;;;7.50;;
76107;SDS011;64834;52.516;10.528;2023-03-11T04:04:23;12.20;;;5.43;;
76107;SDS011;64834;52.516;10.528;2023-03-11T04:06:49;14.00;;;6.63;;
76107;SDS011;64834;52.516;10.528;2023-03-11T04:09:14;6.57;;;3.35;;
76107;SDS011;64834;52.516;10.528;2023-03-11T04:11:39;10.13;;;4.68;;
76107;SDS011;64834;52.516;10.528;2023-03-11T04:14:05;10.73;;;5.18;;
76107;SDS011;64834;52.516;10.528;2023-03-11T04:16:31;6.72;;;3.63;;
76107;SDS011;64834;52.516;10.528;2023-03-11T04:18:56;6.60;;;3.20;;
76107;SDS011;64834;52.516;10.528;2023-03-11T04:21:22;8.30;;;4.05;;
76107;SDS011;64834;52.516;10.528;2023-03-11T04:23:47;13.80;;;5.57;;
76107;SDS011;64834;52.516;10.528;2023-03-11T04:26:13;7.50;;;3.63;;
76107;SDS011;64834;52.516;10.528;2023-03-11T04:28:38;8.77;;;4.03;;
76107;SDS011;64834;52.516;10.528;2023-03-11T04:31:04;5.03;;;2.83;;
76107;SDS011;64834;52.516;10.528;2023-03-11T04:33:29;7.80;;;3.33;;
76107;SDS011;64834;52.516;10.528;2023-03-11T04:35:54;7.15;;;3.50;;
76107;SDS011;64834;52.516;10.528;2023-03-11T04:38:20;8.18;;;3.05;;
76107;SDS011;64834;52.516;10.528;2023-03-11T04:40:45;8.48;;;3.80;;
76107;SDS011;64834;52.516;10.528;2023-03-11T04:43:10;14.02;;;5.07;;
76107;SDS011;64834;52.516;10.528;2023-03-11T04:45:39;10.00;;;4.47;;
76107;SDS011;64834;52.516;10.528;2023-03-11T04:48:06;10.18;;;4.03;;
76107;SDS011;64834;52.516;10.528;2023-03-11T04:50:32;4.38;;;2.55;;
76107;SDS011;64834;52.516;10.528;2023-03-11T04:52:57;3.65;;;2.63;;
76107;SDS011;64834;52.516;10.528;2023-03-11T04:55:23;5.85;;;2.53;;
76107;SDS011;64834;52.516;10.528;2023-03-11T04:57:48;7.38;;;3.13;;
76107;SDS011;64834;52.516;10.528;2023-03-11T05:00:14;6.03;;;2.42;;
76107;SDS011;64834;52.516;10.528;2023-03-11T05:02:40;6.00;;;2.50;;
76107;SDS011;64834;52.516;10.528;2023-03-11T05:05:06;4.53;;;2.90;;
76107;SDS011;64834;52.516;10.528;2023-03-11T05:07:33;4.45;;;2.25;;
76107;SDS011;64834;52.516;10.528;2023-03-11T05:09:59;9.20;;;3.92;;
76107;SDS011;64834;52.516;10.528;2023-03-11T05:12:24;5.82;;;3.25;;
76107;SDS011;64834;52.516;10.528;2023-03-11T05:14:49;8.52;;;4.07;;
76107;SDS011;64834;52.516;10.528;2023-03-11T05:17:15;5.78;;;2.80;;
76107;SDS011;64834;52.516;10.528;2023-03-11T05:19:42;8.05;;;3.90;;
76107;SDS011;64834;52.516;10.528;2023-03-11T05:22:07;4.70;;;2.10;;
76107;SDS011;64834;52.516;10.528;2023-03-11T05:24:33;6.60;;;3.17;;
76107;SDS011;64834;52.516;10.528;2023-03-11T05:26:58;6.25;;;3.97;;
76107;SDS011;64834;52.516;10.528;2023-03-11T05:29:24;20.23;;;3.80;;
76107;SDS011;64834;52.516;10.528;2023-03-11T05:31:50;4.97;;;2.40;;
76107;SDS011;64834;52.516;10.528;2023-03-11T05:34:16;5.88;;;2.10;;
76107;SDS011;64834;52.516;10.528;2023-03-11T05:36:41;5.82;;;2.80;;
76107;SDS011;64834;52.516;10.528;2023-03-11T05:39:07;7.20;;;2.35;;
76107;SDS011;64834;52.516;10.528;2023-03-11T05:41:32;5.22;;;2.13;;
76107;SDS011;64834;52.516;10.528;2023-03-11T05:43:58;4.40;;;2.22;;
76107;SDS011;64834;52.516;10.528;2023-03-11T05:46:23;4.95;;;2.97;;
76107;SDS011;64834;52.516;10.528;2023-03-11T05:48:49;9.00;;;3.83;;
76107;SDS011;64834;52.516;10.528;2023-03-11T05:51:14;7.43;;;3.20;;
76107;SDS011;64834;52.516;10.528;2023-03-11T05:53:43;2.13;;;1.63;;
76107;SDS011;64834;52.516;10.528;2023-03-11T05:56:12;7.43;;;2.90;;
76107;SDS011;64834;52.516;10.528;2023-03-11T05:58:39;2.53;;;1.45;;
76107;SDS011;64834;52.516;10.528;2023-03-11T06:01:08;2.35;;;1.50;;
76107;SDS011;64834;52.516;10.528;2023-03-11T06:03:35;6.30;;;3.13;;
76107;SDS011;64834;52.516;10.528;2023-03-11T06:06:00;7.07;;;2.70;;
76107;SDS011;64834;52.516;10.528;2023-03-11T06:08:25;6.57;;;2.92;;
76107;SDS011;64834;52.516;10.528;2023-03-11T06:10:51;3.97;;;2.55;;
76107;SDS011;64834;52.516;10.528;2023-03-11T06:13:16;6.70;;;3.13;;
76107;SDS011;64834;52.516;10.528;2023-03-11T06:15:42;3.75;;;2.53;;
76107;SDS011;64834;52.516;10.528;2023-03-11T06:18:09;3.72;;;1.85;;
76107;SDS011;64834;52.516;10.528;2023-03-11T06:20:34;5.50;;;2.58;;
76107;SDS011;64834;52.516;10.528;2023-03-11T06:23:00;8.07;;;2.92;;
76107;SDS011;64834;52.516;10.528;2023-03-11T06:25:25;7.00;;;3.75;;
76107;SDS011;64834;52.516;10.528;2023-03-11T06:27:51;7.55;;;2.90;;
76107;SDS011;64834;52.516;10.528;2023-03-11T06:30:17;7.80;;;3.88;;
76107;SDS011;64834;52.516;10.528;2023-03-11T06:32:44;7.32;;;2.35;;
76107;SDS011;64834;52.516;10.528;2023-03-11T06:35:12;7.50;;;3.80;;
76107;SDS011;64834;52.516;10.528;2023-03-11T06:37:39;6.15;;;3.92;;
76107;SDS011;64834;52.516;10.528;2023-03-11T06:40:05;8.88;;;4.35;;
76107;SDS011;64834;52.516;10.528;2023-03-11T06:42:32;5.47;;;2.33;;
76107;SDS011;64834;52.516;10.528;2023-03-11T06:44:58;8.27;;;3.58;;
76107;SDS011;64834;52.516;10.528;2023-03-11T06:47:23;6.55;;;3.47;;
76107;SDS011;64834;52.516;10.528;2023-03-11T06:49:49;4.15;;;2.05;;
76107;SDS011;64834;52.516;10.528;2023-03-11T06:52:15;5.97;;;3.38;;
76107;SDS011;64834;52.516;10.528;2023-03-11T06:54:40;3.65;;;2.03;;
76107;SDS011;64834;52.516;10.528;2023-03-11T06:57:06;4.47;;;1.38;;
76107;SDS011;64834;52.516;10.528;2023-03-11T06:59:32;6.78;;;3.42;;
76107;SDS011;64834;52.516;10.528;2023-03-11T07:01:57;6.03;;;3.33;;
76107;SDS011;64834;52.516;10.528;2023-03-11T07:04:23;4.97;;;2.30;;
76107;SDS011;64834;52.516;10.528;2023-03-11T07:06:48;3.28;;;2.17;;
76107;SDS011;64834;52.516;10.528;2023-03-11T07:09:13;7.07;;;3.45;;
76107;SDS011;64834;52.516;10.528;2023-03-11T07:11:39;7.22;;;3.83;;
76107;SDS011;64834;52.516;10.528;2023-03-11T07:14:04;5.72;;;3.28;;
76107;SDS011;64834;52.516;10.528;2023-03-11T07:16:29;5.47;;;3.13;;
76107;SDS011;64834;52.516;10.528;2023-03-11T07:18:55;8.68;;;4.25;;
76107;SDS011;64834;52.516;10.528;2023-03-11T07:21:23;8.10;;;4.20;;
76107;SDS011;64834;52.516;10.528;2023-03-11T07:23:55;9.15;;;4.75;;
76107;SDS011;64834;52.516;10.528;2023-03-11T07:26:22;6.03;;;3.70;;
76107;SDS011;64834;52.516;10.528;2023-03-11T07:28:49;12.55;;;4.38;;
76107;SDS011;64834;52.516;10.528;2023-03-11T07:31:16;8.73;;;4.43;;
76107;SDS011;64834;52.516;10.528;2023-03-11T07:33:43;9.52;;;4.28;;
76107;SDS011;64834;52.516;10.528;2023-03-11T07:36:10;8.85;;;4.30;;
76107;SDS011;64834;52.516;10.528;2023-03-11T07:38:37;7.82;;;3.33;;
76107;SDS011;64834;52.516;10.528;2023-03-11T07:41:03;7.47;;;3.63;;
76107;SDS011;64834;52.516;10.528;2023-03-11T07:43:28;8.98;;;3.40;;
76107;SDS011;64834;52.516;10.528;2023-03-11T07:46:01;8.05;;;4.40;;
76107;SDS011;64834;52.516;10.528;2023-03-11T07:48:36;5.82;;;3.15;;
76107;SDS011;64834;52.516;10.528;2023-03-11T07:51:13;8.45;;;3.72;;
76107;SDS011;64834;52.516;10.528;2023-03-11T07:53:42;5.85;;;3.00;;
76107;SDS011;64834;52.516;10.528;2023-03-11T07:56:09;8.20;;;4.10;;
76107;SDS011;64834;52.516;10.528;2023-03-11T07:58:36;11.23;;;4.22;;
76107;SDS011;64834;52.516;10.528;2023-03-11T08:01:24;4.38;;;2.67;;
76107;SDS011;64834;52.516;10.528;2023-03-11T08:03:49;6.15;;;3.47;;
76107;SDS011;64834;52.516;10.528;2023-03-11T08:06:17;6.20;;;2.75;;
76107;SDS011;64834;52.516;10.528;2023-03-11T08:08:44;6.38;;;2.17;;
76107;SDS011;64834;52.516;10.528;2023-03-11T08:11:10;7.07;;;3.40;;
76107;SDS011;64834;52.516;10.528;2023-03-11T08:13:37;2.35;;;1.73;;
76107;SDS011;64834;52.516;10.528;2023-03-11T08:16:03;7.30;;;3.33;;
76107;SDS011;64834;52.516;10.528;2023-03-11T08:18:30;9.93;;;4.20;;
76107;SDS011;64834;52.516;10.528;2023-03-11T08:20:56;5.97;;;3.20;;
76107;SDS011;64834;52.516;10.528;2023-03-11T08:23:21;5.45;;;3.20;;
76107;SDS011;64834;52.516;10.528;2023-03-11T08:25:47;4.97;;;2.70;;
76107;SDS011;64834;52.516;10.528;2023-03-11T08:28:12;4.97;;;3.17;;
76107;SDS011;64834;52.516;10.528;2023-03-11T08:30:37;7.47;;;3.55;;
76107;SDS011;64834;52.516;10.528;2023-03-11T08:33:03;6.97;;;3.10;;
76107;SDS011;64834;52.516;10.528;2023-03-11T08:35:29;8.57;;;4.13;;
76107;SDS011;64834;52.516;10.528;2023-03-11T08:37:55;6.00;;;2.38;;
76107;SDS011;64834;52.516;10.528;2023-03-11T08:40:20;3.75;;;2.38;;
76107;SDS011;64834;52.516;10.528;2023-03-11T08:42:46;5.93;;;3.20;;
76107;SDS011;64834;52.516;10.528;2023-03-11T08:45:11;6.95;;;2.60;;
76107;SDS011;64834;52.516;10.528;2023-03-11T08:47:37;6.50;;;2.70;;
76107;SDS011;64834;52.516;10.528;2023-03-11T08:50:03;4.95;;;2.45;;
76107;SDS011;64834;52.516;10.528;2023-03-11T08:52:31;5.07;;;2.55;;
76107;SDS011;64834;52.516;10.528;2023-03-11T08:54:56;6.35;;;3.60;;
76107;SDS011;64834;52.516;10.528;2023-03-11T08:57:21;4.38;;;2.63;;
76107;SDS011;64834;52.516;10.528;2023-03-11T08:59:46;9.68;;;3.85;;
76107;SDS011;64834;52.516;10.528;2023-03-11T09:02:12;6.60;;;3.35;;
76107;SDS011;64834;52.516;10.528;2023-03-11T09:04:37;9.45;;;4.07;;
76107;SDS011;64834;52.516;10.528;2023-03-11T09:07:03;8.00;;;4.03;;
76107;SDS011;64834;52.516;10.528;2023-03-11T09:09:28;6.63;;;3.47;;
76107;SDS011;64834;52.516;10.528;2023-03-11T09:11:53;10.40;;;4.43;;
76107;SDS011;64834;52.516;10.528;2023-03-11T09:14:19;5.90;;;3.65;;
76107;SDS011;64834;52.516;10.528;2023-03-11T09:16:44;8.38;;;3.88;;
76107;SDS011;64834;52.516;10.528;2023-03-11T09:19:09;4.85;;;3.30;;
76107;SDS011;64834;52.516;10.528;2023-03-11T09:21:35;5.18;;;2.78;;
76107;SDS011;64834;52.516;10.528;2023-03-11T09:24:01;8.18;;;4.22;;
76107;SDS011;64834;52.516;10.528;2023-03-11T09:26:31;7.45;;;4.03;;
76107;SDS011;64834;52.516;10.528;2023-03-11T09:28:56;7.97;;;3.72;;
76107;SDS011;64834;52.516;10.528;2023-03-11T09:31:22;8.68;;;4.22;;
76107;SDS011;64834;52.516;10.528;2023-03-11T09:33:48;12.55;;;4.53;;
76107;SDS011;64834;52.516;10.528;2023-03-11T09:36:15;8.68;;;3.85;;
76107;SDS011;64834;52.516;10.528;2023-03-11T09:38:42;7.72;;;4.18;;
76107;SDS011;64834;52.516;10.528;2023-03-11T09:43:48;8.52;;;3.80;;
76107;SDS011;64834;52.516;10.528;2023-03-11T09:46:54;7.32;;;4.05;;
76107;SDS011;64834;52.516;10.528;2023-03-11T09:52:15;5.72;;;3.75;;
76107;SDS011;64834;52.516;10.528;2023-03-11T09:54:50;6.63;;;3.13;;
76107;SDS011;64834;52.516;10.528;2023-03-11T09:57:21;5.22;;;2.97;;
76107;SDS011;64834;52.516;10.528;2023-03-11T09:59:50;6.32;;;3.75;;
76107;SDS011;64834;52.516;10.528;2023-03-11T10:02:17;10.30;;;4.85;;
76107;SDS011;64834;52.516;10.528;2023-03-11T10:04:48;4.65;;;2.63;;
76107;SDS011;64834;52.516;10.528;2023-03-11T10:07:33;7.07;;;3.53;;
76107;SDS011;64834;52.516;10.528;2023-03-11T10:10:03;5.93;;;3.45;;
76107;SDS011;64834;52.516;10.528;2023-03-11T10:12:44;8.43;;;4.72;;
76107;SDS011;64834;52.516;10.528;2023-03-11T10:15:30;7.90;;;3.55;;
76107;SDS011;64834;52.516;10.528;2023-03-11T10:21:07;4.95;;;2.35;;
76107;SDS011;64834;52.516;10.528;2023-03-11T10:26:35;4.50;;;2.08;;
76107;SDS011;64834;52.516;10.528;2023-03-11T10:29:22;6.82;;;3.80;;
76107;SDS011;64834;52.516;10.528;2023-03-11T10:31:53;9.02;;;2.88;;
76107;SDS011;64834;52.516;10.528;2023-03-11T10:34:42;2.00;;;1.42;;
76107;SDS011;64834;52.516;10.528;2023-03-11T10:37:20;3.42;;;2.25;;
76107;SDS011;64834;52.516;10.528;2023-03-11T10:39:50;1.80;;;1.30;;
76107;SDS011;64834;52.516;10.528;2023-03-11T10:42:16;10.18;;;4.85;;
76107;SDS011;64834;52.516;10.528;2023-03-11T10:44:47;6.40;;;3.10;;
76107;SDS011;64834;52.516;10.528;2023-03-11T10:47:16;6.60;;;2.38;;
76107;SDS011;64834;52.516;10.528;2023-03-11T10:49:43;4.82;;;2.70;;
76107;SDS011;64834;52.516;10.528;2023-03-11T10:52:08;7.03;;;2.63;;
76107;SDS011;64834;52.516;10.528;2023-03-11T10:54:35;4.07;;;2.00;;
76107;SDS011;64834;52.516;10.528;2023-03-11T10:57:25;4.00;;;2.25;;
76107;SDS011;64834;52.516;10.528;2023-03-11T10:59:57;5.90;;;2.28;;
76107;SDS011;64834;52.516;10.528;2023-03-11T11:02:26;3.38;;;1.55;;
76107;SDS011;64834;52.516;10.528;2023-03-11T11:05:04;3.15;;;2.25;;
76107;SDS011;64834;52.516;10.528;2023-03-11T11:07:43;4.05;;;3.15;;
76107;SDS011;64834;52.516;10.528;2023-03-11T11:12:35;3.33;;;1.87;;
76107;SDS011;64834;52.516;10.528;2023-03-11T11:15:00;4.47;;;2.35;;
76107;SDS011;64834;52.516;10.528;2023-03-11T11:17:27;7.43;;;2.72;;
76107;SDS011;64834;52.516;10.528;2023-03-11T11:19:55;2.50;;;1.65;;
76107;SDS011;64834;52.516;10.528;2023-03-11T11:22:23;6.88;;;3.15;;
76107;SDS011;64834;52.516;10.528;2023-03-11T11:24:50;5.65;;;2.72;;
76107;SDS011;64834;52.516;10.528;2023-03-11T11:27:18;4.30;;;2.20;;
76107;SDS011;64834;52.516;10.528;2023-03-11T11:34:37;3.53;;;1.90;;
76107;SDS011;64834;52.516;10.528;2023-03-11T11:37:03;4.43;;;1.63;;
76107;SDS011;64834;52.516;10.528;2023-03-11T11:39:41;4.15;;;1.98;;
76107;SDS011;64834;52.516;10.528;2023-03-11T11:42:15;2.33;;;0.98;;
76107;SDS011;64834;52.516;10.528;2023-03-11T11:44:42;2.72;;;1.60;;
76107;SDS011;64834;52.516;10.528;2023-03-11T11:47:13;3.08;;;1.83;;
76107;SDS011;64834;52.516;10.528;2023-03-11T11:49:52;1.83;;;1.23;;
76107;SDS011;64834;52.516;10.528;2023-03-11T11:52:21;2.38;;;1.58;;
76107;SDS011;64834;52.516;10.528;2023-03-11T11:57:46;2.05;;;1.45;;
76107;SDS011;64834;52.516;10.528;2023-03-11T12:00:15;4.43;;;2.22;;
76107;SDS011;64834;52.516;10.528;2023-03-11T12:02:54;4.00;;;1.70;;
76107;SDS011;64834;52.516;10.528;2023-03-11T12:05:34;1.85;;;1.33;;
76107;SDS011;64834;52.516;10.528;2023-03-11T12:08:16;2.88;;;1.52;;
76107;SDS011;64834;52.516;10.528;2023-03-11T12:10:55;3.50;;;2.00;;
76107;SDS011;64834;52.516;10.528;2023-03-11T12:13:40;2.70;;;1.45;;
76107;SDS011;64834;52.516;10.528;2023-03-11T12:16:19;2.28;;;1.48;;
76107;SDS011;64834;52.516;10.528;2023-03-11T12:24:17;4.35;;;1.58;;
76107;SDS011;64834;52.516;10.528;2023-03-11T12:26:50;4.35;;;1.63;;
76107;SDS011;64834;52.516;10.528;2023-03-11T12:29:22;3.05;;;1.30;;
76107;SDS011;64834;52.516;10.528;2023-03-11T12:31:50;2.58;;;1.13;;
76107;SDS011;64834;52.516;10.528;2023-03-11T12:34:18;5.88;;;2.03;;
76107;SDS011;64834;52.516;10.528;2023-03-11T12:36:45;3.35;;;1.63;;
76107;SDS011;64834;52.516;10.528;2023-03-11T12:39:22;5.57;;;2.20;;
76107;SDS011;64834;52.516;10.528;2023-03-11T12:44:39;1.52;;;0.77;;
76107;SDS011;64834;52.516;10.528;2023-03-11T12:47:24;9.35;;;2.08;;
76107;SDS011;64834;52.516;10.528;2023-03-11T12:52:51;2.67;;;1.15;;
76107;SDS011;64834;52.516;10.528;2023-03-11T13:08:43;1.77;;;0.82;;
76107;SDS011;64834;52.516;10.528;2023-03-11T13:16:40;2.13;;;1.08;;
76107;SDS011;64834;52.516;10.528;2023-03-11T13:21:51;0.98;;;0.57;;
76107;SDS011;64834;52.516;10.528;2023-03-11T13:26:56;1.33;;;0.55;;
76107;SDS011;64834;52.516;10.528;2023-03-11T13:29:51;3.35;;;0.65;;
76107;SDS011;64834;52.516;10.528;2023-03-11T13:32:24;2.35;;;1.10;;
76107;SDS011;64834;52.516;10.528;2023-03-11T13:35:10;0.98;;;0.60;;
76107;SDS011;64834;52.516;10.528;2023-03-11T13:40:37;1.52;;;0.75;;
76107;SDS011;64834;52.516;10.528;2023-03-11T13:43:04;1.52;;;0.73;;
76107;SDS011;64834;52.516;10.528;2023-03-11T13:45:38;3.95;;;0.98;;
76107;SDS011;64834;52.516;10.528;2023-03-11T13:48:13;1.15;;;0.75;;
76107;SDS011;64834;52.516;10.528;2023-03-11T13:50:43;2.05;;;1.00;;
76107;SDS011;64834;52.516;10.528;2023-03-11T13:56:15;4.80;;;1.52;;
76107;SDS011;64834;52.516;10.528;2023-03-11T13:58:42;4.97;;;1.05;;
76107;SDS011;64834;52.516;10.528;2023-03-11T14:01:10;2.17;;;1.00;;
76107;SDS011;64834;52.516;10.528;2023-03-11T14:03:40;1.30;;;0.73;;
76107;SDS011;64834;52.516;10.528;2023-03-11T14:06:07;1.67;;;0.80;;
76107;SDS011;64834;52.516;10.528;2023-03-11T14:08:37;3.05;;;0.85;;
76107;SDS011;64834;52.516;10.528;2023-03-11T14:13:38;3.00;;;1.75;;
76107;SDS011;64834;52.516;10.528;2023-03-11T14:16:13;1.35;;;0.65;;
76107;SDS011;64834;52.516;10.528;2023-03-11T14:18:42;1.42;;;0.90;;
76107;SDS011;64834;52.516;10.528;2023-03-11T14:21:14;1.48;;;0.73;;
76107;SDS011;64834;52.516;10.528;2023-03-11T14:23:51;1.70;;;0.77;;
76107;SDS011;64834;52.516;10.528;2023-03-11T14:26:22;2.60;;;1.10;;
76107;SDS011;64834;52.516;10.528;2023-03-11T14:28:52;1.92;;;0.60;;
76107;SDS011;64834;52.516;10.528;2023-03-11T14:33:53;2.28;;;0.75;;
76107;SDS011;64834;52.516;10.528;2023-03-11T14:36:20;1.35;;;0.75;;
76107;SDS011;64834;52.516;10.528;2023-03-11T14:38:45;2.17;;;0.60;;
76107;SDS011;64834;52.516;10.528;2023-03-11T14:41:11;1.90;;;0.70;;
76107;SDS011;64834;52.516;10.528;2023-03-11T14:43:40;2.55;;;0.80;;
76107;SDS011;64834;52.516;10.528;2023-03-11T14:46:09;1.92;;;1.45;;
76107;SDS011;64834;52.516;10.528;2023-03-11T14:48:43;1.98;;;0.75;;
76107;SDS011;64834;52.516;10.528;2023-03-11T14:51:12;4.18;;;1.08;;
76107;SDS011;64834;52.516;10.528;2023-03-11T14:53:46;5.07;;;0.85;;
76107;SDS011;64834;52.516;10.528;2023-03-11T14:56:22;3.80;;;0.77;;
76107;SDS011;64834;52.516;10.528;2023-03-11T14:58:53;0.95;;;0.57;;
76107;SDS011;64834;52.516;10.528;2023-03-11T15:01:28;0.70;;;0.43;;
76107;SDS011;64834;52.516;10.528;2023-03-11T15:03:57;1.60;;;0.70;;
76107;SDS011;64834;52.516;10.528;2023-03-11T15:06:31;2.65;;;0.77;;
76107;SDS011;64834;52.516;10.528;2023-03-11T15:09:04;2.67;;;0.73;;
76107;SDS011;64834;52.516;10.528;2023-03-11T15:11:42;6.05;;;0.75;;
76107;SDS011;64834;52.516;10.528;2023-03-11T15:14:17;4.57;;;1.00;;
76107;SDS011;64834;52.516;10.528;2023-03-11T15:16:46;1.33;;;0.60;;
76107;SDS011;64834;52.516;10.528;2023-03-11T15:19:21;1.65;;;0.57;;
76107;SDS011;64834;52.516;10.528;2023-03-11T15:21:56;0.52;;;0.20;;
76107;SDS011;64834;52.516;10.528;2023-03-11T15:24:24;0.80;;;0.43;;
76107;SDS011;64834;52.516;10.528;2023-03-11T15:27:05;1.73;;;0.70;;
76107;SDS011;64834;52.516;10.528;2023-03-11T15:29:33;3.00;;;0.82;;
76107;SDS011;64834;52.516;10.528;2023-03-11T15:31:59;0.93;;;0.52;;
76107;SDS011;64834;52.516;10.528;2023-03-11T15:35:11;2.65;;;0.80;;
76107;SDS011;64834;52.516;10.528;2023-03-11T15:38:18;4.90;;;0.50;;
76107;SDS011;64834;52.516;10.528;2023-03-11T15:40:52;3.25;;;0.60;;
76107;SDS011;64834;52.516;10.528;2023-03-11T15:43:22;1.38;;;0.52;;
76107;SDS011;64834;52.516;10.528;2023-03-11T15:45:53;2.20;;;0.85;;
76107;SDS011;64834;52.516;10.528;2023-03-11T15:48:21;3.65;;;0.45;;
76107;SDS011;64834;52.516;10.528;2023-03-11T15:50:54;3.38;;;0.80;;
76107;SDS011;64834;52.516;10.528;2023-03-11T15:53:21;4.40;;;0.93;;
76107;SDS011;64834;52.516;10.528;2023-03-11T15:55:48;2.83;;;0.60;;